sensor_id;sensor_type;location;lat;lon;timestamp;P1;durP1;ratioP1;P2;durP2;ratioP2
51971;SDS011;37991;49.662;10.060;2022-12-18T10:36:09;12.70;;;5.25;;
51971;SDS011;37991;49.662;10.060;2022-12-18T10:38:35;11.90;;;6.18;;
51971;SDS011;37991;49.662;10.060;2022-12-18T10:59:33;24.67;;;10.95;;
51971;SDS011;37991;49.662;10.060;2022-12-18T11:02:35;24.73;;;10.98;;
51971;SDS011;37991;49.662;10.060;2022-12-18T11:05:25;30.95;;;11.73;;
51971;SDS011;37991;49.662;10.060;2022-12-18T11:10:36;29.02;;;12.13;;
51971;SDS011;37991;49.662;10.060;2022-12-18T11:13:11;29.48;;;12.00;;
51971;SDS011;37991;49.662;10.060;2022-12-18T11:15:45;34.10;;;12.48;;
51971;SDS011;37991;49.662;10.060;2022-12-18T11:18:18;38.35;;;14.27;;
51971;SDS011;37991;49.662;10.060;2022-12-18T11:20:50;30.30;;;11.90;;
51971;SDS011;37991;49.662;10.060;2022-12-18T11:23:18;28.10;;;10.55;;
51971;SDS011;37991;49.662;10.060;2022-12-18T11:25:59;23.17;;;9.65;;
51971;SDS011;37991;49.662;10.060;2022-12-18T11:36:25;17.20;;;7.68;;
51971;SDS011;37991;49.662;10.060;2022-12-18T11:38:56;23.90;;;9.05;;
51971;SDS011;37991;49.662;10.060;2022-12-18T11:41:38;21.45;;;8.82;;
51971;SDS011;37991;49.662;10.060;2022-12-18T11:44:35;12.98;;;6.22;;
51971;SDS011;37991;49.662;10.060;2022-12-18T11:47:15;17.35;;;7.07;;
51971;SDS011;37991;49.662;10.060;2022-12-18T11:49:50;16.15;;;7.93;;
51971;SDS011;37991;49.662;10.060;2022-12-18T11:52:19;18.65;;;7.18;;
51971;SDS011;37991;49.662;10.060;2022-12-18T11:55:08;12.70;;;5.75;;
51971;SDS011;37991;49.662;10.060;2022-12-18T11:57:40;13.30;;;4.78;;
51971;SDS011;37991;49.662;10.060;2022-12-18T12:00:15;16.50;;;7.00;;
51971;SDS011;37991;49.662;10.060;2022-12-18T12:11:07;16.83;;;7.00;;
51971;SDS011;37991;49.662;10.060;2022-12-18T12:13:45;24.92;;;8.98;;
51971;SDS011;37991;49.662;10.060;2022-12-18T12:16:31;16.08;;;5.97;;
51971;SDS011;37991;49.662;10.060;2022-12-18T12:22:13;22.77;;;7.40;;
51971;SDS011;37991;49.662;10.060;2022-12-18T12:30:18;17.60;;;6.65;;
51971;SDS011;37991;49.662;10.060;2022-12-18T12:35:46;13.57;;;5.75;;
51971;SDS011;37991;49.662;10.060;2022-12-18T12:38:43;16.77;;;6.82;;
51971;SDS011;37991;49.662;10.060;2022-12-18T12:41:16;13.52;;;6.53;;
51971;SDS011;37991;49.662;10.060;2022-12-18T12:44:03;23.42;;;9.15;;
51971;SDS011;37991;49.662;10.060;2022-12-18T12:46:34;17.92;;;7.85;;
51971;SDS011;37991;49.662;10.060;2022-12-18T12:49:05;17.35;;;7.90;;
51971;SDS011;37991;49.662;10.060;2022-12-18T12:51:40;20.60;;;7.45;;
51971;SDS011;37991;49.662;10.060;2022-12-18T12:54:15;15.43;;;6.53;;
51971;SDS011;37991;49.662;10.060;2022-12-18T12:56:46;25.02;;;7.57;;
51971;SDS011;37991;49.662;10.060;2022-12-18T13:04:22;21.52;;;6.70;;
51971;SDS011;37991;49.662;10.060;2022-12-18T13:07:20;15.38;;;6.63;;
51971;SDS011;37991;49.662;10.060;2022-12-18T13:12:51;12.30;;;5.75;;
51971;SDS011;37991;49.662;10.060;2022-12-18T13:20:41;16.50;;;8.15;;
51971;SDS011;37991;49.662;10.060;2022-12-18T13:30:59;22.55;;;8.70;;
51971;SDS011;37991;49.662;10.060;2022-12-18T13:45:47;17.48;;;8.38;;
51971;SDS011;37991;49.662;10.060;2022-12-18T13:48:22;21.05;;;9.13;;
51971;SDS011;37991;49.662;10.060;2022-12-18T13:50:53;24.88;;;7.82;;
51971;SDS011;37991;49.662;10.060;2022-12-18T13:53:24;16.90;;;6.63;;
51971;SDS011;37991;49.662;10.060;2022-12-18T13:55:53;23.02;;;8.77;;
51971;SDS011;37991;49.662;10.060;2022-12-18T13:58:19;18.63;;;7.07;;
51971;SDS011;37991;49.662;10.060;2022-12-18T14:00:44;13.20;;;6.13;;
51971;SDS011;37991;49.662;10.060;2022-12-18T14:03:20;20.55;;;8.52;;
51971;SDS011;37991;49.662;10.060;2022-12-18T14:06:05;21.48;;;7.45;;
51971;SDS011;37991;49.662;10.060;2022-12-18T14:08:35;16.10;;;6.38;;
51971;SDS011;37991;49.662;10.060;2022-12-18T14:11:04;14.68;;;6.60;;
51971;SDS011;37991;49.662;10.060;2022-12-18T14:13:38;15.23;;;6.25;;
51971;SDS011;37991;49.662;10.060;2022-12-18T14:16:06;16.02;;;6.40;;
51971;SDS011;37991;49.662;10.060;2022-12-18T14:18:38;17.25;;;7.53;;
51971;SDS011;37991;49.662;10.060;2022-12-18T14:21:23;17.23;;;6.72;;
51971;SDS011;37991;49.662;10.060;2022-12-18T14:24:03;17.75;;;8.35;;
51971;SDS011;37991;49.662;10.060;2022-12-18T14:26:38;19.65;;;6.90;;
51971;SDS011;37991;49.662;10.060;2022-12-18T14:32:04;21.20;;;8.38;;
51971;SDS011;37991;49.662;10.060;2022-12-18T14:34:31;15.98;;;6.38;;
51971;SDS011;37991;49.662;10.060;2022-12-18T14:36:56;17.10;;;5.63;;
51971;SDS011;37991;49.662;10.060;2022-12-18T14:39:21;16.65;;;6.93;;
51971;SDS011;37991;49.662;10.060;2022-12-18T14:41:50;19.45;;;6.72;;
51971;SDS011;37991;49.662;10.060;2022-12-18T14:44:15;16.38;;;7.07;;
51971;SDS011;37991;49.662;10.060;2022-12-18T14:46:47;13.48;;;6.28;;
51971;SDS011;37991;49.662;10.060;2022-12-18T14:49:22;14.10;;;6.03;;
51971;SDS011;37991;49.662;10.060;2022-12-18T14:51:54;25.83;;;6.65;;
51971;SDS011;37991;49.662;10.060;2022-12-18T14:54:22;19.48;;;6.68;;
51971;SDS011;37991;49.662;10.060;2022-12-18T14:56:51;14.63;;;6.53;;
51971;SDS011;37991;49.662;10.060;2022-12-18T14:59:24;15.85;;;7.20;;
51971;SDS011;37991;49.662;10.060;2022-12-18T15:01:57;19.60;;;6.47;;
51971;SDS011;37991;49.662;10.060;2022-12-18T15:04:34;13.85;;;5.90;;
51971;SDS011;37991;49.662;10.060;2022-12-18T15:07:26;13.82;;;6.38;;
51971;SDS011;37991;49.662;10.060;2022-12-18T15:10:08;13.10;;;5.93;;
51971;SDS011;37991;49.662;10.060;2022-12-18T15:12:44;12.32;;;5.07;;
51971;SDS011;37991;49.662;10.060;2022-12-18T15:23:25;9.55;;;4.55;;
51971;SDS011;37991;49.662;10.060;2022-12-18T15:26:16;13.65;;;5.85;;
51971;SDS011;37991;49.662;10.060;2022-12-18T15:36:21;9.63;;;5.40;;
51971;SDS011;37991;49.662;10.060;2022-12-18T15:38:48;11.52;;;6.30;;
51971;SDS011;37991;49.662;10.060;2022-12-18T15:41:15;12.93;;;6.15;;
51971;SDS011;37991;49.662;10.060;2022-12-18T15:43:42;7.50;;;4.10;;
51971;SDS011;37991;49.662;10.060;2022-12-18T15:46:11;14.75;;;6.97;;
51971;SDS011;37991;49.662;10.060;2022-12-18T15:48:44;19.35;;;6.53;;
51971;SDS011;37991;49.662;10.060;2022-12-18T15:51:18;11.10;;;6.07;;
51971;SDS011;37991;49.662;10.060;2022-12-18T15:53:43;11.05;;;5.03;;
51971;SDS011;37991;49.662;10.060;2022-12-18T15:56:10;10.07;;;5.47;;
51971;SDS011;37991;49.662;10.060;2022-12-18T16:01:21;8.77;;;5.72;;
51971;SDS011;37991;49.662;10.060;2022-12-18T16:03:48;7.45;;;4.43;;
51971;SDS011;37991;49.662;10.060;2022-12-18T16:06:13;13.15;;;6.00;;
51971;SDS011;37991;49.662;10.060;2022-12-18T16:08:39;12.57;;;5.93;;
51971;SDS011;37991;49.662;10.060;2022-12-18T16:11:04;16.42;;;5.07;;
51971;SDS011;37991;49.662;10.060;2022-12-18T16:13:30;9.02;;;5.00;;
51971;SDS011;37991;49.662;10.060;2022-12-18T16:15:56;13.95;;;7.03;;
51971;SDS011;37991;49.662;10.060;2022-12-18T16:18:21;13.38;;;6.15;;
51971;SDS011;37991;49.662;10.060;2022-12-18T16:20:47;17.45;;;5.15;;
51971;SDS011;37991;49.662;10.060;2022-12-18T16:23:12;17.45;;;6.03;;
51971;SDS011;37991;49.662;10.060;2022-12-18T16:25:37;12.25;;;5.25;;
51971;SDS011;37991;49.662;10.060;2022-12-18T16:28:04;13.30;;;5.85;;
51971;SDS011;37991;49.662;10.060;2022-12-18T16:30:30;12.02;;;5.68;;
51971;SDS011;37991;49.662;10.060;2022-12-18T16:32:56;8.48;;;5.15;;
51971;SDS011;37991;49.662;10.060;2022-12-18T16:35:24;11.20;;;5.72;;
51971;SDS011;37991;49.662;10.060;2022-12-18T16:37:51;14.77;;;6.03;;
51971;SDS011;37991;49.662;10.060;2022-12-18T16:40:16;12.43;;;6.00;;
51971;SDS011;37991;49.662;10.060;2022-12-18T16:42:43;10.23;;;5.60;;
51971;SDS011;37991;49.662;10.060;2022-12-18T16:45:14;17.73;;;5.97;;
51971;SDS011;37991;49.662;10.060;2022-12-18T16:47:41;11.38;;;5.47;;
51971;SDS011;37991;49.662;10.060;2022-12-18T16:50:07;14.32;;;4.80;;
51971;SDS011;37991;49.662;10.060;2022-12-18T16:52:33;16.20;;;5.40;;
51971;SDS011;37991;49.662;10.060;2022-12-18T16:54:59;14.35;;;5.57;;
51971;SDS011;37991;49.662;10.060;2022-12-18T16:57:24;13.38;;;6.38;;
51971;SDS011;37991;49.662;10.060;2022-12-18T16:59:50;13.85;;;5.78;;
51971;SDS011;37991;49.662;10.060;2022-12-18T17:02:16;12.02;;;4.97;;
51971;SDS011;37991;49.662;10.060;2022-12-18T17:04:46;11.68;;;4.93;;
51971;SDS011;37991;49.662;10.060;2022-12-18T17:07:12;11.43;;;4.65;;
51971;SDS011;37991;49.662;10.060;2022-12-18T17:09:38;12.38;;;5.57;;
51971;SDS011;37991;49.662;10.060;2022-12-18T17:12:04;15.18;;;5.10;;
51971;SDS011;37991;49.662;10.060;2022-12-18T17:14:31;11.70;;;5.38;;
51971;SDS011;37991;49.662;10.060;2022-12-18T17:16:57;12.32;;;4.32;;
51971;SDS011;37991;49.662;10.060;2022-12-18T17:19:24;12.52;;;5.70;;
51971;SDS011;37991;49.662;10.060;2022-12-18T17:21:50;16.30;;;6.68;;
51971;SDS011;37991;49.662;10.060;2022-12-18T17:24:16;9.07;;;4.60;;
51971;SDS011;37991;49.662;10.060;2022-12-18T17:26:42;11.07;;;5.38;;
51971;SDS011;37991;49.662;10.060;2022-12-18T17:29:08;23.77;;;5.32;;
51971;SDS011;37991;49.662;10.060;2022-12-18T17:31:36;15.63;;;5.53;;
51971;SDS011;37991;49.662;10.060;2022-12-18T17:34:02;17.38;;;6.30;;
51971;SDS011;37991;49.662;10.060;2022-12-18T17:36:29;8.75;;;4.47;;
51971;SDS011;37991;49.662;10.060;2022-12-18T17:38:58;9.70;;;5.22;;
51971;SDS011;37991;49.662;10.060;2022-12-18T17:41:25;13.82;;;5.68;;
51971;SDS011;37991;49.662;10.060;2022-12-18T17:43:55;12.55;;;5.78;;
51971;SDS011;37991;49.662;10.060;2022-12-18T17:46:22;11.38;;;5.15;;
51971;SDS011;37991;49.662;10.060;2022-12-18T17:48:49;14.50;;;6.35;;
51971;SDS011;37991;49.662;10.060;2022-12-18T17:51:16;11.43;;;5.68;;
51971;SDS011;37991;49.662;10.060;2022-12-18T17:53:42;14.00;;;5.70;;
51971;SDS011;37991;49.662;10.060;2022-12-18T17:56:08;15.18;;;6.45;;
51971;SDS011;37991;49.662;10.060;2022-12-18T17:58:36;11.10;;;5.63;;
51971;SDS011;37991;49.662;10.060;2022-12-18T18:01:02;10.80;;;5.97;;
51971;SDS011;37991;49.662;10.060;2022-12-18T18:03:28;11.30;;;6.38;;
51971;SDS011;37991;49.662;10.060;2022-12-18T18:05:55;14.63;;;6.97;;
51971;SDS011;37991;49.662;10.060;2022-12-18T18:08:21;12.10;;;5.50;;
51971;SDS011;37991;49.662;10.060;2022-12-18T18:10:47;13.63;;;6.05;;
51971;SDS011;37991;49.662;10.060;2022-12-18T18:13:22;15.45;;;5.70;;
51971;SDS011;37991;49.662;10.060;2022-12-18T18:16:08;9.35;;;5.18;;
51971;SDS011;37991;49.662;10.060;2022-12-18T18:18:34;10.30;;;4.85;;
51971;SDS011;37991;49.662;10.060;2022-12-18T18:21:07;9.15;;;5.90;;
51971;SDS011;37991;49.662;10.060;2022-12-18T18:23:33;13.90;;;7.20;;
51971;SDS011;37991;49.662;10.060;2022-12-18T18:26:03;17.42;;;7.10;;
51971;SDS011;37991;49.662;10.060;2022-12-18T18:28:32;11.23;;;5.90;;
51971;SDS011;37991;49.662;10.060;2022-12-18T18:31:03;13.68;;;6.55;;
51971;SDS011;37991;49.662;10.060;2022-12-18T18:35:58;9.73;;;5.18;;
51971;SDS011;37991;49.662;10.060;2022-12-18T18:38:24;7.13;;;3.97;;
51971;SDS011;37991;49.662;10.060;2022-12-18T18:40:59;10.25;;;5.70;;
51971;SDS011;37991;49.662;10.060;2022-12-18T18:43:26;14.93;;;6.28;;
51971;SDS011;37991;49.662;10.060;2022-12-18T18:45:58;10.63;;;5.25;;
51971;SDS011;37991;49.662;10.060;2022-12-18T18:48:25;10.60;;;5.38;;
51971;SDS011;37991;49.662;10.060;2022-12-18T18:50:54;7.70;;;4.93;;
51971;SDS011;37991;49.662;10.060;2022-12-18T18:53:24;11.60;;;5.55;;
51971;SDS011;37991;49.662;10.060;2022-12-18T18:55:49;10.68;;;5.38;;
51971;SDS011;37991;49.662;10.060;2022-12-18T18:58:15;11.35;;;6.70;;
51971;SDS011;37991;49.662;10.060;2022-12-18T19:00:40;12.80;;;6.85;;
51971;SDS011;37991;49.662;10.060;2022-12-18T19:03:05;11.77;;;5.57;;
51971;SDS011;37991;49.662;10.060;2022-12-18T19:05:31;15.73;;;6.28;;
51971;SDS011;37991;49.662;10.060;2022-12-18T19:07:57;16.83;;;7.35;;
51971;SDS011;37991;49.662;10.060;2022-12-18T19:10:22;11.10;;;5.55;;
51971;SDS011;37991;49.662;10.060;2022-12-18T19:12:48;18.92;;;6.88;;
51971;SDS011;37991;49.662;10.060;2022-12-18T19:15:32;14.15;;;5.60;;
51971;SDS011;37991;49.662;10.060;2022-12-18T19:17:58;12.70;;;6.88;;
51971;SDS011;37991;49.662;10.060;2022-12-18T19:20:23;13.68;;;4.88;;
51971;SDS011;37991;49.662;10.060;2022-12-18T19:22:49;11.20;;;5.50;;
51971;SDS011;37991;49.662;10.060;2022-12-18T19:25:14;11.98;;;6.07;;
51971;SDS011;37991;49.662;10.060;2022-12-18T19:27:40;16.75;;;5.72;;
51971;SDS011;37991;49.662;10.060;2022-12-18T19:30:05;15.10;;;6.65;;
51971;SDS011;37991;49.662;10.060;2022-12-18T19:32:32;10.45;;;4.72;;
51971;SDS011;37991;49.662;10.060;2022-12-18T19:34:58;11.25;;;5.90;;
51971;SDS011;37991;49.662;10.060;2022-12-18T19:37:23;19.55;;;7.13;;
51971;SDS011;37991;49.662;10.060;2022-12-18T19:39:48;14.55;;;5.75;;
51971;SDS011;37991;49.662;10.060;2022-12-18T19:42:14;12.60;;;6.30;;
51971;SDS011;37991;49.662;10.060;2022-12-18T19:44:39;10.23;;;5.78;;
51971;SDS011;37991;49.662;10.060;2022-12-18T19:47:04;9.82;;;5.00;;
51971;SDS011;37991;49.662;10.060;2022-12-18T19:49:31;16.38;;;6.70;;
51971;SDS011;37991;49.662;10.060;2022-12-18T19:51:56;9.70;;;5.95;;
51971;SDS011;37991;49.662;10.060;2022-12-18T19:54:22;15.57;;;6.57;;
51971;SDS011;37991;49.662;10.060;2022-12-18T19:56:47;15.18;;;6.65;;
51971;SDS011;37991;49.662;10.060;2022-12-18T19:59:13;16.48;;;7.72;;
51971;SDS011;37991;49.662;10.060;2022-12-18T20:01:38;16.13;;;7.22;;
51971;SDS011;37991;49.662;10.060;2022-12-18T20:04:04;13.27;;;5.53;;
51971;SDS011;37991;49.662;10.060;2022-12-18T20:06:47;10.38;;;5.68;;
51971;SDS011;37991;49.662;10.060;2022-12-18T20:09:14;14.98;;;5.72;;
51971;SDS011;37991;49.662;10.060;2022-12-18T20:11:40;11.10;;;5.78;;
51971;SDS011;37991;49.662;10.060;2022-12-18T20:14:05;15.65;;;5.85;;
51971;SDS011;37991;49.662;10.060;2022-12-18T20:16:30;10.40;;;5.32;;
51971;SDS011;37991;49.662;10.060;2022-12-18T20:18:56;16.88;;;5.50;;
51971;SDS011;37991;49.662;10.060;2022-12-18T20:21:22;13.80;;;6.15;;
51971;SDS011;37991;49.662;10.060;2022-12-18T20:23:48;11.98;;;4.40;;
51971;SDS011;37991;49.662;10.060;2022-12-18T20:26:13;14.43;;;6.82;;
51971;SDS011;37991;49.662;10.060;2022-12-18T20:28:39;25.92;;;7.85;;
51971;SDS011;37991;49.662;10.060;2022-12-18T20:31:04;10.80;;;6.47;;
51971;SDS011;37991;49.662;10.060;2022-12-18T20:33:32;12.95;;;6.07;;
51971;SDS011;37991;49.662;10.060;2022-12-18T20:36:05;9.60;;;5.88;;
51971;SDS011;37991;49.662;10.060;2022-12-18T20:38:32;10.45;;;5.53;;
51971;SDS011;37991;49.662;10.060;2022-12-18T20:40:58;12.73;;;5.85;;
51971;SDS011;37991;49.662;10.060;2022-12-18T20:43:26;13.18;;;5.78;;
51971;SDS011;37991;49.662;10.060;2022-12-18T20:45:59;11.38;;;5.25;;
51971;SDS011;37991;49.662;10.060;2022-12-18T20:48:26;12.90;;;6.45;;
51971;SDS011;37991;49.662;10.060;2022-12-18T20:50:58;9.52;;;6.05;;
51971;SDS011;37991;49.662;10.060;2022-12-18T20:53:30;16.17;;;6.55;;
51971;SDS011;37991;49.662;10.060;2022-12-18T20:55:56;16.58;;;6.40;;
51971;SDS011;37991;49.662;10.060;2022-12-18T20:58:21;11.23;;;6.20;;
51971;SDS011;37991;49.662;10.060;2022-12-18T21:00:46;12.60;;;5.70;;
51971;SDS011;37991;49.662;10.060;2022-12-18T21:03:12;12.10;;;5.57;;
51971;SDS011;37991;49.662;10.060;2022-12-18T21:05:37;12.85;;;7.03;;
51971;SDS011;37991;49.662;10.060;2022-12-18T21:08:03;10.07;;;6.28;;
51971;SDS011;37991;49.662;10.060;2022-12-18T21:10:28;9.65;;;5.72;;
51971;SDS011;37991;49.662;10.060;2022-12-18T21:12:54;19.38;;;6.25;;
51971;SDS011;37991;49.662;10.060;2022-12-18T21:15:19;12.13;;;5.57;;
51971;SDS011;37991;49.662;10.060;2022-12-18T21:17:45;13.13;;;4.88;;
51971;SDS011;37991;49.662;10.060;2022-12-18T21:20:10;8.95;;;6.30;;
51971;SDS011;37991;49.662;10.060;2022-12-18T21:22:37;20.23;;;6.38;;
51971;SDS011;37991;49.662;10.060;2022-12-18T21:25:03;9.43;;;4.75;;
51971;SDS011;37991;49.662;10.060;2022-12-18T21:27:29;13.32;;;5.90;;
51971;SDS011;37991;49.662;10.060;2022-12-18T21:29:54;12.10;;;5.93;;
51971;SDS011;37991;49.662;10.060;2022-12-18T21:32:19;13.25;;;5.32;;
51971;SDS011;37991;49.662;10.060;2022-12-18T21:34:45;13.80;;;6.47;;
51971;SDS011;37991;49.662;10.060;2022-12-18T21:37:10;16.10;;;6.57;;
51971;SDS011;37991;49.662;10.060;2022-12-18T21:39:35;8.68;;;4.97;;
51971;SDS011;37991;49.662;10.060;2022-12-18T21:42:01;11.35;;;5.75;;
51971;SDS011;37991;49.662;10.060;2022-12-18T21:44:47;11.77;;;6.32;;
51971;SDS011;37991;49.662;10.060;2022-12-18T21:47:13;14.10;;;5.72;;
51971;SDS011;37991;49.662;10.060;2022-12-18T21:49:39;7.00;;;5.65;;
51971;SDS011;37991;49.662;10.060;2022-12-18T21:52:04;12.65;;;6.10;;
51971;SDS011;37991;49.662;10.060;2022-12-18T21:54:30;17.48;;;7.55;;
51971;SDS011;37991;49.662;10.060;2022-12-18T21:56:57;18.23;;;7.07;;
51971;SDS011;37991;49.662;10.060;2022-12-18T21:59:25;16.80;;;7.65;;
51971;SDS011;37991;49.662;10.060;2022-12-18T22:01:56;22.25;;;8.18;;
51971;SDS011;37991;49.662;10.060;2022-12-18T22:04:24;25.10;;;7.05;;
51971;SDS011;37991;49.662;10.060;2022-12-18T22:06:50;13.90;;;6.22;;
51971;SDS011;37991;49.662;10.060;2022-12-18T22:09:17;14.93;;;6.95;;
51971;SDS011;37991;49.662;10.060;2022-12-18T22:11:44;17.33;;;7.80;;
51971;SDS011;37991;49.662;10.060;2022-12-18T22:14:10;14.48;;;6.68;;
51971;SDS011;37991;49.662;10.060;2022-12-18T22:16:36;19.30;;;7.97;;
51971;SDS011;37991;49.662;10.060;2022-12-18T22:19:01;19.58;;;7.72;;
51971;SDS011;37991;49.662;10.060;2022-12-18T22:21:28;15.30;;;7.95;;
51971;SDS011;37991;49.662;10.060;2022-12-18T22:23:55;20.75;;;8.50;;
51971;SDS011;37991;49.662;10.060;2022-12-18T22:26:26;20.25;;;7.80;;
51971;SDS011;37991;49.662;10.060;2022-12-18T22:28:53;20.73;;;8.43;;
51971;SDS011;37991;49.662;10.060;2022-12-18T22:31:37;17.73;;;8.43;;
51971;SDS011;37991;49.662;10.060;2022-12-18T22:34:03;25.58;;;10.45;;
51971;SDS011;37991;49.662;10.060;2022-12-18T22:39:05;29.05;;;16.25;;
51971;SDS011;37991;49.662;10.060;2022-12-18T22:41:33;33.35;;;14.07;;
51971;SDS011;37991;49.662;10.060;2022-12-18T22:43:58;33.50;;;15.98;;
51971;SDS011;37991;49.662;10.060;2022-12-18T22:46:24;21.33;;;10.68;;
51971;SDS011;37991;49.662;10.060;2022-12-18T22:48:51;26.17;;;10.32;;
51971;SDS011;37991;49.662;10.060;2022-12-18T22:51:17;31.38;;;12.27;;
51971;SDS011;37991;49.662;10.060;2022-12-18T22:53:43;23.38;;;10.20;;
51971;SDS011;37991;49.662;10.060;2022-12-18T22:56:09;17.60;;;9.65;;
51971;SDS011;37991;49.662;10.060;2022-12-18T22:58:35;23.30;;;9.18;;
51971;SDS011;37991;49.662;10.060;2022-12-18T23:01:00;21.27;;;8.35;;
51971;SDS011;37991;49.662;10.060;2022-12-18T23:03:26;19.10;;;7.18;;
51971;SDS011;37991;49.662;10.060;2022-12-18T23:05:51;18.92;;;8.07;;
51971;SDS011;37991;49.662;10.060;2022-12-18T23:08:17;19.02;;;8.63;;
51971;SDS011;37991;49.662;10.060;2022-12-18T23:10:42;17.80;;;8.18;;
51971;SDS011;37991;49.662;10.060;2022-12-18T23:13:08;21.95;;;8.52;;
51971;SDS011;37991;49.662;10.060;2022-12-18T23:15:33;14.98;;;6.30;;
51971;SDS011;37991;49.662;10.060;2022-12-18T23:17:59;17.70;;;6.30;;
51971;SDS011;37991;49.662;10.060;2022-12-18T23:20:25;21.33;;;7.35;;
51971;SDS011;37991;49.662;10.060;2022-12-18T23:22:51;18.83;;;7.00;;
51971;SDS011;37991;49.662;10.060;2022-12-18T23:25:17;21.35;;;7.88;;
51971;SDS011;37991;49.662;10.060;2022-12-18T23:27:42;14.50;;;7.65;;
51971;SDS011;37991;49.662;10.060;2022-12-18T23:30:08;15.40;;;7.80;;
51971;SDS011;37991;49.662;10.060;2022-12-18T23:32:35;21.08;;;8.48;;
51971;SDS011;37991;49.662;10.060;2022-12-18T23:35:01;22.80;;;7.18;;
51971;SDS011;37991;49.662;10.060;2022-12-18T23:37:26;17.80;;;8.50;;
51971;SDS011;37991;49.662;10.060;2022-12-18T23:39:51;15.73;;;6.88;;
51971;SDS011;37991;49.662;10.060;2022-12-18T23:42:17;17.42;;;7.05;;
51971;SDS011;37991;49.662;10.060;2022-12-18T23:44:42;15.60;;;7.22;;
51971;SDS011;37991;49.662;10.060;2022-12-18T23:47:08;17.98;;;8.23;;
51971;SDS011;37991;49.662;10.060;2022-12-18T23:49:33;15.73;;;6.72;;
51971;SDS011;37991;49.662;10.060;2022-12-18T23:51:59;11.38;;;6.00;;
51971;SDS011;37991;49.662;10.060;2022-12-18T23:54:24;13.57;;;7.22;;
51971;SDS011;37991;49.662;10.060;2022-12-18T23:56:49;16.70;;;7.57;;
51971;SDS011;37991;49.662;10.060;2022-12-18T23:59:15;20.88;;;9.10;;
